Overview Statistics Trail Chart Weather Telemetry Raw packets
 

This is the latest recevied weather packets stored in our database for station/object OE6ACM-10. If no packets are shown the sender has not sent any weather packets the latest 10 day(s).

<< 81 82 83 84 85 86 87 >>
Time Temp. Humidity Pressure Rain* Wind** Luminosity Snow
1788102387 41.11° C 44% 926.9 hPa - - - -
1788102087 45° C 33% 926.9 hPa - - - -
1788101787 46.11° C 35% 926.8 hPa - - - -
1788101487 47.22° C 33% 926.9 hPa - - - -
1788101187 47.78° C 32% 927 hPa - - - -
1788100894 48.33° C 33% 927 hPa - - - -
1788100587 48.33° C 32% 927.1 hPa - - - -
1788100287 47.22° C 34% 927.1 hPa - - - -
1788099987 46.67° C 36% 927.1 hPa - - - -
1788099687 45.56° C 48% 927.2 hPa - - - -
1788099387 42.22° C 59% 927.2 hPa - - - -
1788099087 40.56° C 68% 927.3 hPa - - - -
1788098787 41.11° C 59% 927.3 hPa - - - -
1788098487 40° C 63% 927.3 hPa - - - -
1788098187 38.89° C 81% 927.4 hPa - - - -
1788097887 35° C 85% 927.5 hPa - - - -
1788097587 35° C 81% 927.5 hPa - - - -
1788097287 36.11° C 73% 927.6 hPa - - - -
1788096987 37.22° C 65% 927.6 hPa - - - -
1788096687 38.89° C 57% 927.6 hPa - - - -
1788096387 38.89° C 70% 927.7 hPa - - - -
1788096087 37.78° C 75% 927.7 hPa - - - -
1788095787 38.33° C 64% 927.8 hPa - - - -
1788095487 39.44° C 60% 927.8 hPa - - - -
1788095187 40.56° C 60% 927.8 hPa - - - -

* Rain since midnight (hover to see other rain measurements)
** Current wind speed in m/s (hover to see current wind gust speed)